Aeroporto :
LOGIN :

Iscrizione | Disclaimer

   EN    FR    IT 

 










Sommario :    VFR   VFR Marginale   IFR   IFR Intensivo   IFR Molto Intensivo
Visibilità : 
Base nubi : 
>= 8 km
>= 3000ft
5 / 8 km
1000 / 3000 ft
1500m / 5 km
500 / 1000 ft
800 / 1500m
200 / 500 ft
< 800m
< 200 ft
Simboli :   Temporali  Nebbia  Neve Forte  Precipitazioni Forti  Vento > 20 kt
SIGMETs :   Varie  Temporali  Ghiacco  Turbolenza  Onda orograficha  Ceneri Vulcaniche







- Altitudine del aeroporto : 357 ft
- Codice IATA : TUF
- Carte del aeroporto


LFOT - Tours

ULTIMO METAR :
  • 220600Z AUTO 07005KT CAVOK 13/10 Q1020 NOSIG

METARs OBSOLETI :
  • 220530Z AUTO VRB03KT CAVOK 12/10 Q1020 NOSIG
  • 220500Z AUTO VRB02KT CAVOK 12/10 Q1020 TEMPO 2500 BR VV///
  • 220430Z AUTO VRB02KT CAVOK 11/10 Q1020 TEMPO 2500 BR VV///
  • 220400Z AUTO VRB03KT CAVOK 11/10 Q1020 TEMPO 0400 FG VV///
  • 220330Z AUTO VRB02KT CAVOK 11/10 Q1020 TEMPO 0400 FG VV///

TAF TAF LFOT
Valido dal 22 a 06 ore il 23 a 06 ore UTC


220500Z 2206/2306 03003KT CAVOK
Nessun NOTAM noto per questo aeroporto.



MetMap, La meteo Aeronautica in un colpo d'occhio ! - Copyright ORBIFLY Dicembre 2007 - Disclaimer

ORBIFLY MET'MAP TEAM :

Programmazione e sviluppo : Alexandra Zaïnal
Concezione e sviluppo : Baudouin d'Aumeries
Co-Programmazione e sviluppo : Marc-Olivier Méhu
Supporto tecnico e logistico : Manuel Goepfert
Aiuto per la traduzione : Arnaldo La Scala

Contatto : metmap@orbifly.com




FONTI E CREDITI :

   NOAA